FDX9204 KMEM-KIND
Flight info
| Callsign | FDX9204 |
|---|---|
| Flight time | N/A |
| Altitude | 35000 |
| Route | CRSON7 HUMMS PXV EMBRR SMUKE3 |
| Aircraft | B77W/H-SDE1E2E3FGHIJ2J3J4J5M1RWXY/LB1D1 |
Departure
| Time | 2026-05-04 18:41 |
|---|---|
| Airport | Memphis International Airport (KMEM) |
Arrival
| Time | N/A |
|---|---|
| Airport | Indianapolis International Airport (KIND) |
| Time | Latitude | Longitude | Altitude | Speed | Heading |
|---|---|---|---|---|---|
| 2026-05-04 18:35 | 35.06008 | -89.97114 | 282 ft | 0 kts | 14° |
| 2026-05-04 18:35 | 35.06000 | -89.97117 | 282 ft | 4 kts | 11° |
| 2026-05-04 18:36 | 35.05973 | -89.97121 | 284 ft | 4 kts | 9° |
| 2026-05-04 18:36 | 35.05951 | -89.97130 | 284 ft | 3 kts | 42° |
| 2026-05-04 18:36 | 35.05937 | -89.97148 | 285 ft | 4 kts | 69° |
| 2026-05-04 18:36 | 35.05934 | -89.97176 | 281 ft | 4 kts | 94° |
| 2026-05-04 18:37 | 35.05935 | -89.97190 | 281 ft | 0 kts | 92° |
| 2026-05-04 18:39 | 35.05896 | -89.97148 | 282 ft | 14 kts | 164° |
| 2026-05-04 18:39 | 35.05798 | -89.97163 | 283 ft | 14 kts | 193° |
| 2026-05-04 18:39 | 35.05700 | -89.97191 | 283 ft | 14 kts | 206° |
| 2026-05-04 18:39 | 35.05664 | -89.97301 | 282 ft | 15 kts | 266° |
| 2026-05-04 18:40 | 35.05655 | -89.97423 | 282 ft | 15 kts | 259° |
| 2026-05-04 18:40 | 35.05573 | -89.97478 | 285 ft | 15 kts | 183° |
| 2026-05-04 18:40 | 35.05495 | -89.97510 | 286 ft | 8 kts | 211° |
| 2026-05-04 18:40 | 35.05450 | -89.97547 | 287 ft | 8 kts | 223° |
| 2026-05-04 18:41 | 35.05337 | -89.97603 | 288 ft | 33 kts | 184° |
| 2026-05-04 18:41 | 35.04820 | -89.97607 | 298 ft | 126 kts | 179° |
| 2026-05-04 18:41 | 35.03670 | -89.97675 | 651 ft | 192 kts | 183° |
| 2026-05-04 18:41 | 35.02378 | -89.97673 | 1045 ft | 182 kts | 186° |
| 2026-05-04 18:42 | 35.01127 | -89.97783 | 1325 ft | 177 kts | 189° |
| 2026-05-04 18:42 | 34.99889 | -89.97909 | 1512 ft | 179 kts | 189° |
| 2026-05-04 18:42 | 34.98601 | -89.98043 | 1863 ft | 196 kts | 188° |
| 2026-05-04 18:42 | 34.97237 | -89.98185 | 2747 ft | 203 kts | 189° |
| 2026-05-04 18:43 | 34.95829 | -89.98191 | 3667 ft | 210 kts | 168° |
| 2026-05-04 18:43 | 34.94575 | -89.97165 | 4449 ft | 225 kts | 138° |
| 2026-05-04 18:43 | 34.93491 | -89.95743 | 5315 ft | 231 kts | 137° |
| 2026-05-04 18:43 | 34.92773 | -89.93969 | 6177 ft | 244 kts | 99° |
| 2026-05-04 18:44 | 34.92792 | -89.91886 | 6982 ft | 250 kts | 94° |
| 2026-05-04 18:44 | 34.92789 | -89.90443 | 7333 ft | 265 kts | 95° |
| 2026-05-04 18:44 | 34.92690 | -89.87272 | 8031 ft | 293 kts | 96° |
| 2026-05-04 18:44 | 34.92637 | -89.84754 | 8851 ft | 300 kts | 86° |
| 2026-05-04 18:45 | 34.93313 | -89.82302 | 9548 ft | 309 kts | 60° |
| 2026-05-04 18:45 | 34.94430 | -89.80056 | 10275 ft | 317 kts | 59° |
| 2026-05-04 18:45 | 34.95637 | -89.77735 | 10725 ft | 334 kts | 51° |
| 2026-05-04 18:45 | 34.97495 | -89.75869 | 10913 ft | 360 kts | 23° |
| 2026-05-04 18:46 | 34.99982 | -89.75140 | 11134 ft | 378 kts | 358° |
| 2026-05-04 18:46 | 35.02658 | -89.75309 | 11681 ft | 389 kts | 353° |
| 2026-05-04 18:46 | 35.05372 | -89.75534 | 12485 ft | 399 kts | 354° |
| 2026-05-04 18:46 | 35.08156 | -89.75698 | 13529 ft | 402 kts | 355° |